^^
Saratoga-Weather Station Historical Data
Daily Summary for January 27, 2020 Units:  Both    English   Metric
Daily Weekly Monthly Yearly Custom
  High: Low: Average:
Temperature: 39.6 °F /  4.2 °C 34.9 °F /  1.6 °C 37.4 °F /  3 °C
Dew Point: 36.7 °F /  2.6 °C 30.9 °F /  -0.6 °C 34.3 °F /  1.3 °C
Humidity: 93% 83% 89%
Wind Speed: 13mph /  20.9km/h - 4mph /  6.5km/h
Wind Gust: 24mph /  38.6km/h - -
Wind- - SSE
Pressure: 30 in /  1015.6 hPa 28.9 in /  978.7 hPa -
Precipitation: 0.22 in /  5.6 mm    
Historical Graphs
 
 
Tabular Data for January 27, 2020
Time Temperature Dew Point Pressure Wind Wind Speed Wind Gust Humidity Rainfall Rate (Hourly) solar
00:02 34.9 °F /  1.6 °C 32 °F /  0 °C 30in /  1015.6hPa North 2mph /  3.2km/h 5mph /  8km/h 89% 0in /  0.0mm 0 W/m2
00:07 34.9 °F /  1.6 °C 31.6 °F /  -0.2 °C 30in /  1015.2hPa SE 4.9mph /  7.9km/h 7mph /  11.3km/h 88% 0in /  0.0mm 0 W/m2
00:12 34.9 °F /  1.6 °C 31.6 °F /  -0.2 °C 30in /  1015.2hPa North 2mph /  3.2km/h 4mph /  6.4km/h 88% 0in /  0.0mm 0 W/m2
00:17 34.9 °F /  1.6 °C 31.6 °F /  -0.2 °C 30in /  1014.9hPa ENE 8.9mph /  14.3km/h 9mph /  14.5km/h 88% 0in /  0.0mm 0 W/m2
00:22 34.9 °F /  1.6 °C 31.6 °F /  -0.2 °C 30in /  1014.9hPa ENE 0.9mph /  1.4km/h 8mph /  12.9km/h 88% 0in /  0.0mm 0 W/m2
00:27 34.9 °F /  1.6 °C 31.6 °F /  -0.2 °C 30in /  1014.6hPa ESE 2mph /  3.2km/h 7mph /  11.3km/h 88% 0in /  0.0mm 0 W/m2
00:32 35.1 °F /  1.7 °C 31.8 °F /  -0.1 °C 30in /  1014.6hPa East 4mph /  6.4km/h 11mph /  17.7km/h 88% 0in /  0.0mm 0 W/m2
00:37 35.1 °F /  1.7 °C 31.6 °F /  -0.2 °C 30in /  1014.2hPa NNE 4mph /  6.4km/h 5mph /  8km/h 87% 0in /  0.0mm 0 W/m2
00:42 35.1 °F /  1.7 °C 31.6 °F /  -0.2 °C 30in /  1014.6hPa NNW 4mph /  6.4km/h 5mph /  8km/h 87% 0in /  0.0mm 0 W/m2
00:47 35.1 °F /  1.7 °C 31.6 °F /  -0.2 °C 30in /  1014.2hPa West 4mph /  6.4km/h 8mph /  12.9km/h 87% 0in /  0.0mm 0 W/m2
00:52 35.2 °F /  1.8 °C 31.8 °F /  -0.1 °C 29.9in /  1013.9hPa NNW 8.1mph /  13km/h 8mph /  12.9km/h 87% 0in /  0.0mm 0 W/m2
00:57 35.1 °F /  1.7 °C 31.6 °F /  -0.2 °C 29.9in /  1013.5hPa NNW 0.9mph /  1.4km/h 6mph /  9.7km/h 87% 0in /  0.0mm 0 W/m2
01:02 35.1 °F /  1.7 °C 31.6 °F /  -0.2 °C 29.9in /  1013.5hPa NE 2mph /  3.2km/h 5mph /  8km/h 87% 0in /  0.0mm 0 W/m2
01:07 35.1 °F /  1.7 °C 31.6 °F /  -0.2 °C 29.9in /  1013.5hPa SSE 2.9mph /  4.7km/h 3mph /  4.8km/h 87% 0in /  0.0mm 0 W/m2
01:12 35.1 °F /  1.7 °C 31.6 °F /  -0.2 °C 29.9in /  1013.2hPa WNW 6.9mph /  11.1km/h 10mph /  16.1km/h 87% 0in /  0.0mm 0 W/m2
01:17 35.1 °F /  1.7 °C 31.6 °F /  -0.2 °C 29.9in /  1012.9hPa NNW 4.9mph /  7.9km/h 5mph /  8km/h 87% 0in /  0.0mm 0 W/m2
01:22 35.1 °F /  1.7 °C 31.6 °F /  -0.2 °C 29.9in /  1012.9hPa South 2mph /  3.2km/h 10mph /  16.1km/h 87% 0in /  0.0mm 0 W/m2
01:27 35.1 °F /  1.7 °C 31.6 °F /  -0.2 °C 29.9in /  1012.5hPa NNW 2.9mph /  4.7km/h 9mph /  14.5km/h 87% 0in /  0.0mm 0 W/m2
01:32 35.1 °F /  1.7 °C 31.6 °F /  -0.2 °C 29.9in /  1012.5hPa NE 2mph /  3.2km/h 6mph /  9.7km/h 87% 0in /  0.0mm 0 W/m2
01:37 35.1 °F /  1.7 °C 31.6 °F /  -0.2 °C 29.9in /  1012.5hPa NW 4mph /  6.4km/h 9mph /  14.5km/h 87% 0in /  0.0mm 0 W/m2
01:42 35.1 °F /  1.7 °C 31.6 °F /  -0.2 °C 29.9in /  1012.2hPa North 2mph /  3.2km/h 5mph /  8km/h 87% 0in /  0.0mm 0 W/m2
01:47 35.1 °F /  1.7 °C 31.3 °F /  -0.4 °C 29.9in /  1012.2hPa NE 2mph /  3.2km/h 5mph /  8km/h 86% 0in /  0.0mm 0 W/m2
01:52 35.2 °F /  1.8 °C 31.5 °F /  -0.3 °C 29.9in /  1011.9hPa NW 2.9mph /  4.7km/h 4mph /  6.4km/h 86% 0in /  0.0mm 0 W/m2
01:57 35.2 °F /  1.8 °C 31.5 °F /  -0.3 °C 29.9in /  1011.5hPa NW 2mph /  3.2km/h 9mph /  14.5km/h 86% 0in /  0.0mm 0 W/m2
02:02 35.2 °F /  1.8 °C 31.5 °F /  -0.3 °C 29.9in /  1011.2hPa NE 4mph /  6.4km/h 9mph /  14.5km/h 86% 0in /  0.0mm 0 W/m2
02:07 35.4 °F /  1.9 °C 31.6 °F /  -0.2 °C 29.9in /  1011.2hPa East 2mph /  3.2km/h 5mph /  8km/h 86% 0in /  0.0mm 0 W/m2
02:12 35.4 °F /  1.9 °C 31.6 °F /  -0.2 °C 29.9in /  1011.2hPa East 2.9mph /  4.7km/h 4mph /  6.4km/h 86% 0in /  0.0mm 0 W/m2
02:17 35.6 °F /  2 °C 31.5 °F /  -0.3 °C 29.9in /  1010.8hPa North 2mph /  3.2km/h 6mph /  9.7km/h 85% 0in /  0.0mm 0 W/m2
02:22 35.8 °F /  2.1 °C 31.6 °F /  -0.2 °C 29.9in /  1010.8hPa East 11mph /  17.7km/h 11mph /  17.7km/h 85% 0in /  0.0mm 0 W/m2
02:27 35.8 °F /  2.1 °C 31.5 °F /  -0.3 °C 29.8in /  1010.5hPa NNE 2mph /  3.2km/h 10mph /  16.1km/h 84% 0in /  0.0mm 0 W/m2
02:32 35.8 °F /  2.1 °C 31.1 °F /  -0.5 °C 29.8in /  1010.5hPa West 11mph /  17.7km/h 11mph /  17.7km/h 83% 0in /  0.0mm 0 W/m2
02:37 35.8 °F /  2.1 °C 31.5 °F /  -0.3 °C 29.8in /  1010.5hPa North 2.9mph /  4.7km/h 4mph /  6.4km/h 84% 0in /  0.0mm 0 W/m2
02:42 35.6 °F /  2 °C 31.3 °F /  -0.4 °C 29.8in /  1010.2hPa ESE 8.1mph /  13km/h 10mph /  16.1km/h 84% 0in /  0.0mm 0 W/m2
02:47 35.4 °F /  1.9 °C 31.1 °F /  -0.5 °C 29.8in /  1010.2hPa WNW 4mph /  6.4km/h 5mph /  8km/h 84% 0in /  0.0mm 0 W/m2
02:52 35.4 °F /  1.9 °C 31.1 °F /  -0.5 °C 29.8in /  1010.2hPa NE 6mph /  9.7km/h 6mph /  9.7km/h 84% 0in /  0.0mm 0 W/m2
02:57 35.4 °F /  1.9 °C 31.1 °F /  -0.5 °C 29.8in /  1009.8hPa NE 4mph /  6.4km/h 8mph /  12.9km/h 84% 0in /  0.0mm 0 W/m2
03:02 35.2 °F /  1.8 °C 30.9 °F /  -0.6 °C 29.8in /  1009.8hPa WNW 2.9mph /  4.7km/h 5mph /  8km/h 84% 0in /  0.0mm 0 W/m2
03:07 35.2 °F /  1.8 °C 30.9 °F /  -0.6 °C 29.8in /  1009.5hPa ENE 4.9mph /  7.9km/h 8mph /  12.9km/h 84% 0in /  0.0mm 0 W/m2
03:12 35.2 °F /  1.8 °C 30.9 °F /  -0.6 °C 29.8in /  1009.5hPa NNW 2.9mph /  4.7km/h 9mph /  14.5km/h 84% 0in /  0.0mm 0 W/m2
03:17 35.2 °F /  1.8 °C 31.1 °F /  -0.5 °C 29.8in /  1009.1hPa ENE 2.9mph /  4.7km/h 6mph /  9.7km/h 85% 0in /  0.0mm 0 W/m2
03:22 35.2 °F /  1.8 °C 31.1 °F /  -0.5 °C 29.8in /  1008.8hPa NNE 2.9mph /  4.7km/h 6mph /  9.7km/h 85% 0in /  0.0mm 0 W/m2
03:27 35.2 °F /  1.8 °C 31.1 °F /  -0.5 °C 29.8in /  1008.5hPa East 2.9mph /  4.7km/h 8mph /  12.9km/h 85% 0in /  0.0mm 0 W/m2
03:32 35.4 °F /  1.9 °C 31.3 °F /  -0.4 °C 29.8in /  1008.5hPa WNW 4mph /  6.4km/h 9mph /  14.5km/h 85% 0in /  0.0mm 0 W/m2
03:37 35.4 °F /  1.9 °C 31.3 °F /  -0.4 °C 29.8in /  1008.5hPa NNE 2.9mph /  4.7km/h 9mph /  14.5km/h 85% 0in /  0.0mm 0 W/m2
03:42 35.4 °F /  1.9 °C 31.3 °F /  -0.4 °C 29.8in /  1008.5hPa ENE 2.9mph /  4.7km/h 7mph /  11.3km/h 85% 0in /  0.0mm 0 W/m2
03:47 35.6 °F /  2 °C 31.5 °F /  -0.3 °C 29.8in /  1008.5hPa Calm   9mph /  14.5km/h 85% 0in /  0.0mm 0 W/m2
03:52 35.6 °F /  2 °C 31.5 °F /  -0.3 °C 29.8in /  1008.5hPa NNE 2mph /  3.2km/h 5mph /  8km/h 85% 0in /  0.0mm 0 W/m2
03:57 35.6 °F /  2 °C 31.5 °F /  -0.3 °C 29.8in /  1008.1hPa WNW 0.9mph /  1.4km/h 8mph /  12.9km/h 85% 0in /  0.0mm 0 W/m2
04:02 35.6 °F /  2 °C 31.8 °F /  -0.1 °C 29.8in /  1008.1hPa NNE 8.1mph /  13km/h 10mph /  16.1km/h 86% 0in /  0.0mm 0 W/m2
04:07 35.6 °F /  2 °C 31.8 °F /  -0.1 °C 29.8in /  1007.5hPa West 4mph /  6.4km/h 6mph /  9.7km/h 86% 0in /  0.0mm 0 W/m2
04:12 35.6 °F /  2 °C 32.2 °F /  0.1 °C 29.8in /  1007.5hPa North 6mph /  9.7km/h 6mph /  9.7km/h 87% 0in /  0.0mm 0 W/m2
04:17 35.4 °F /  1.9 °C 32 °F /  0 °C 29.7in /  1007.1hPa North 2mph /  3.2km/h 11mph /  17.7km/h 87% 0in /  0.0mm 0 W/m2
04:22 35.6 °F /  2 °C 32.2 °F /  0.1 °C 29.7in /  1006.8hPa NNW 4mph /  6.4km/h 5mph /  8km/h 87% 0in /  0.0mm 0 W/m2
04:27 35.6 °F /  2 °C 32.2 °F /  0.1 °C 29.7in /  1006.8hPa ENE 8.1mph /  13km/h 8mph /  12.9km/h 87% 0in /  0.0mm 0 W/m2
04:32 35.8 °F /  2.1 °C 32.4 °F /  0.2 °C 29.7in /  1006.4hPa NW 2.9mph /  4.7km/h 5mph /  8km/h 87% 0in /  0.0mm 0 W/m2
04:37 35.8 °F /  2.1 °C 32.4 °F /  0.2 °C 29.7in /  1006.4hPa East 4.9mph /  7.9km/h 5mph /  8km/h 87% 0in /  0.0mm 0 W/m2
04:43 36 °F /  2.2 °C 32.7 °F /  0.4 °C 29.7in /  1006.4hPa NE 4mph /  6.4km/h 6mph /  9.7km/h 88% 0in /  0.0mm 0 W/m2
04:48 36 °F /  2.2 °C 32.7 °F /  0.4 °C 29.7in /  1006.1hPa ENE 8.1mph /  13km/h 8mph /  12.9km/h 88% 0in /  0.0mm 0 W/m2
04:53 36 °F /  2.2 °C 32.7 °F /  0.4 °C 29.7in /  1006.1hPa NNW 6mph /  9.7km/h 9mph /  14.5km/h 88% 0in /  0.0mm 0 W/m2
04:58 36 °F /  2.2 °C 32.7 °F /  0.4 °C 29.7in /  1005.8hPa NE 2mph /  3.2km/h 11mph /  17.7km/h 88% 0in /  0.0mm 0 W/m2
05:03 36.1 °F /  2.3 °C 32.9 °F /  0.5 °C 29.7in /  1005.8hPa North 0.9mph /  1.4km/h 5mph /  8km/h 88% 0in /  0.0mm 0 W/m2
05:08 36.1 °F /  2.3 °C 32.9 °F /  0.5 °C 29.7in /  1005.4hPa East 2mph /  3.2km/h 11mph /  17.7km/h 88% 0in /  0.0mm 0 W/m2
05:13 36.1 °F /  2.3 °C 33.3 °F /  0.7 °C 29.7in /  1005.1hPa North 2mph /  3.2km/h 7mph /  11.3km/h 89% 0in /  0.0mm 0 W/m2
05:18 36 °F /  2.2 °C 33.1 °F /  0.6 °C 29.7in /  1005.1hPa Calm   9mph /  14.5km/h 89% 0in /  0.0mm 0 W/m2
05:23 36 °F /  2.2 °C 33.1 °F /  0.6 °C 29.7in /  1005.1hPa NNE 4mph /  6.4km/h 5mph /  8km/h 89% 0in /  0.0mm 0 W/m2
05:28 36 °F /  2.2 °C 33.3 °F /  0.7 °C 29.7in /  1004.7hPa NE 4mph /  6.4km/h 9mph /  14.5km/h 90% 0in /  0.0mm 0 W/m2
05:33 35.8 °F /  2.1 °C 33.1 °F /  0.6 °C 29.7in /  1004.7hPa NE 4mph /  6.4km/h 10mph /  16.1km/h 90% 0in /  0.0mm 0 W/m2
05:38 35.8 °F /  2.1 °C 33.4 °F /  0.8 °C 29.7in /  1004.7hPa NNE 2mph /  3.2km/h 8mph /  12.9km/h 91% 0in /  0.0mm 0 W/m2
05:43 35.6 °F /  2 °C 33.3 °F /  0.7 °C 29.7in /  1004.4hPa NE 0.9mph /  1.4km/h 10mph /  16.1km/h 91% 0in /  0.0mm 0 W/m2
05:48 35.6 °F /  2 °C 33.3 °F /  0.7 °C 29.7in /  1004.4hPa NW 2mph /  3.2km/h 6mph /  9.7km/h 91% 0in /  0.0mm 0 W/m2
05:53 35.4 °F /  1.9 °C 33.1 °F /  0.6 °C 29.7in /  1004.4hPa North 2.9mph /  4.7km/h 9mph /  14.5km/h 91% 0in /  0.0mm 0 W/m2
05:58 35.4 °F /  1.9 °C 33.1 °F /  0.6 °C 29.7in /  1004.1hPa NE 2.9mph /  4.7km/h 4mph /  6.4km/h 91% 0in /  0.0mm 0 W/m2
06:03 35.6 °F /  2 °C 32.9 °F /  0.5 °C 29.7in /  1004.1hPa NNE 2mph /  3.2km/h 8mph /  12.9km/h 90% 0in /  0.0mm 0 W/m2
06:08 35.6 °F /  2 °C 32.9 °F /  0.5 °C 29.6in /  1003.7hPa North 2.9mph /  4.7km/h 5mph /  8km/h 90% 0in /  0.0mm 0 W/m2
06:13 35.6 °F /  2 °C 32.9 °F /  0.5 °C 29.6in /  1003.7hPa ENE 2.9mph /  4.7km/h 5mph /  8km/h 90% 0in /  0.0mm 0 W/m2
06:18 35.6 °F /  2 °C 32.9 °F /  0.5 °C 29.6in /  1003.7hPa NNW 4.9mph /  7.9km/h 10mph /  16.1km/h 90% 0in /  0.0mm 0 W/m2
06:23 35.6 °F /  2 °C 32.9 °F /  0.5 °C 29.6in /  1003.7hPa North 0.9mph /  1.4km/h 11mph /  17.7km/h 90% 0in /  0.0mm 0 W/m2
06:28 35.8 °F /  2.1 °C 33.1 °F /  0.6 °C 29.6in /  1003.4hPa NNE 0.9mph /  1.4km/h 5mph /  8km/h 90% 0in /  0.0mm 0 W/m2
06:33 35.6 °F /  2 °C 32.9 °F /  0.5 °C 29.6in /  1003.4hPa NE 2.9mph /  4.7km/h 11mph /  17.7km/h 90% 0in /  0.0mm 0 W/m2
06:38 35.6 °F /  2 °C 33.3 °F /  0.7 °C 29.6in /  1003.4hPa WNW 2mph /  3.2km/h 5mph /  8km/h 91% 0in /  0.0mm 0 W/m2
06:43 35.6 °F /  2 °C 33.3 °F /  0.7 °C 29.6in /  1003.0hPa WNW 6mph /  9.7km/h 6mph /  9.7km/h 91% 0in /  0.0mm 0 W/m2
06:48 35.4 °F /  1.9 °C 33.1 °F /  0.6 °C 29.6in /  1003.0hPa North 4mph /  6.4km/h 7mph /  11.3km/h 91% 0in /  0.0mm 0 W/m2
06:53 35.4 °F /  1.9 °C 33.3 °F /  0.7 °C 29.6in /  1003.0hPa NNE 2.9mph /  4.7km/h 8mph /  12.9km/h 92% 0in /  0.0mm 0 W/m2
06:58 35.4 °F /  1.9 °C 33.3 °F /  0.7 °C 29.6in /  1002.7hPa North 4mph /  6.4km/h 5mph /  8km/h 92% 0in /  0.0mm 0 W/m2
07:03 35.4 °F /  1.9 °C 33.3 °F /  0.7 °C 29.6in /  1002.4hPa NE 4.9mph /  7.9km/h 9mph /  14.5km/h 92% 0in /  0.0mm 0 W/m2
07:08 35.4 °F /  1.9 °C 33.3 °F /  0.7 °C 29.6in /  1002.0hPa NE 2mph /  3.2km/h 7mph /  11.3km/h 92% 0in /  0.0mm 0 W/m2
07:13 35.4 °F /  1.9 °C 33.3 °F /  0.7 °C 29.6in /  1002.0hPa ESE 4mph /  6.4km/h 9mph /  14.5km/h 92% 0in /  0.0mm 0 W/m2
07:18 35.4 °F /  1.9 °C 33.3 °F /  0.7 °C 29.6in /  1002.0hPa NE 2.9mph /  4.7km/h 6mph /  9.7km/h 92% 0in /  0.0mm 0 W/m2
07:23 35.4 °F /  1.9 °C 33.6 °F /  0.9 °C 29.6in /  1001.7hPa North 2.9mph /  4.7km/h 5mph /  8km/h 93% 0.01in /  0.2mm 0 W/m2
07:28 35.4 °F /  1.9 °C 33.6 °F /  0.9 °C 29.6in /  1001.7hPa NNE 0.9mph /  1.4km/h 7mph /  11.3km/h 93% 0.01in /  0.2mm 0 W/m2
07:33 35.4 °F /  1.9 °C 33.6 °F /  0.9 °C 29.6in /  1001.4hPa NW 2mph /  3.2km/h 11mph /  17.7km/h 93% 0.01in /  0.2mm 0 W/m2
07:38 35.6 °F /  2 °C 33.8 °F /  1 °C 29.6in /  1001.4hPa WSW 2mph /  3.2km/h 9mph /  14.5km/h 93% 0.01in /  0.2mm 0 W/m2
07:43 35.8 °F /  2.1 °C 33.6 °F /  0.9 °C 29.6in /  1001.4hPa NE 0.9mph /  1.4km/h 11mph /  17.7km/h 92% 0.01in /  0.2mm 0 W/m2
07:48 35.8 °F /  2.1 °C 33.6 °F /  0.9 °C 29.6in /  1001.4hPa NW 2mph /  3.2km/h 7mph /  11.3km/h 92% 0.01in /  0.2mm 0 W/m2
07:53 36 °F /  2.2 °C 33.8 °F /  1 °C 29.6in /  1001.0hPa NE 2.9mph /  4.7km/h 5mph /  8km/h 92% 0.01in /  0.2mm 0 W/m2
07:58 36.1 °F /  2.3 °C 34 °F /  1.1 °C 29.6in /  1000.7hPa ENE 0.9mph /  1.4km/h 5mph /  8km/h 92% 0.01in /  0.2mm 0 W/m2
08:03 36.1 °F /  2.3 °C 34 °F /  1.1 °C 29.6in /  1000.7hPa North 2.9mph /  4.7km/h 4mph /  6.4km/h 92% 0.01in /  0.2mm 0 W/m2
08:08 36.3 °F /  2.4 °C 34 °F /  1.1 °C 29.5in /  1000.3hPa NNW 4mph /  6.4km/h 8mph /  12.9km/h 91% 0.01in /  0.2mm 0 W/m2
08:13 36.3 °F /  2.4 °C 34 °F /  1.1 °C 29.5in /  1000.3hPa ENE 2.9mph /  4.7km/h 9mph /  14.5km/h 91% 0.01in /  0.2mm 0 W/m2
08:18 36.5 °F /  2.5 °C 33.8 °F /  1 °C 29.5in /  1000.3hPa North 8.1mph /  13km/h 8mph /  12.9km/h 90% 0.01in /  0.2mm 0 W/m2
08:23 36.7 °F /  2.6 °C 34 °F /  1.1 °C 29.5in /  1000.0hPa North 2.9mph /  4.7km/h 9mph /  14.5km/h 90% 0in /  0.0mm 0 W/m2
08:28 36.9 °F /  2.7 °C 34 °F /  1.1 °C 29.5in /  999.7hPa North 4mph /  6.4km/h 5mph /  8km/h 89% 0in /  0.0mm 0 W/m2
08:33 37 °F /  2.8 °C 34.2 °F /  1.2 °C 29.5in /  999.7hPa ENE 4mph /  6.4km/h 6mph /  9.7km/h 89% 0in /  0.0mm 0 W/m2
08:38 37 °F /  2.8 °C 34.2 °F /  1.2 °C 29.5in /  999.3hPa West 2.9mph /  4.7km/h 5mph /  8km/h 89% 0in /  0.0mm 0 W/m2
08:43 37.2 °F /  2.9 °C 34.3 °F /  1.3 °C 29.5in /  999.0hPa NE 4.9mph /  7.9km/h 11mph /  17.7km/h 89% 0in /  0.0mm 0 W/m2
08:48 37.4 °F /  3 °C 34.2 °F /  1.2 °C 29.5in /  999.0hPa East 0.9mph /  1.4km/h 7mph /  11.3km/h 88% 0in /  0.0mm 5 W/m2
08:53 37.6 °F /  3.1 °C 34.3 °F /  1.3 °C 29.5in /  998.6hPa North 2mph /  3.2km/h 11mph /  17.7km/h 88% 0in /  0.0mm 0 W/m2
08:58 37.8 °F /  3.2 °C 34.2 °F /  1.2 °C 29.5in /  998.6hPa WNW 2.9mph /  4.7km/h 6mph /  9.7km/h 87% 0in /  0.0mm 5 W/m2
09:03 37.8 °F /  3.2 °C 34.2 °F /  1.2 °C 29.5in /  998.3hPa NNW 2mph /  3.2km/h 9mph /  14.5km/h 87% 0in /  0.0mm 9 W/m2
09:08 37.9 °F /  3.3 °C 34.3 °F /  1.3 °C 29.5in /  998.3hPa NE 4mph /  6.4km/h 8mph /  12.9km/h 87% 0in /  0.0mm 12 W/m2
09:13 37.9 °F /  3.3 °C 34.3 °F /  1.3 °C 29.5in /  998.3hPa East 11mph /  17.7km/h 12mph /  19.3km/h 87% 0in /  0.0mm 11 W/m2
09:18 38.1 °F /  3.4 °C 34.3 °F /  1.3 °C 29.5in /  998.0hPa North 2.9mph /  4.7km/h 7mph /  11.3km/h 86% 0in /  0.0mm 11 W/m2
09:23 38.1 °F /  3.4 °C 34.3 °F /  1.3 °C 29.5in /  998.0hPa ENE 4mph /  6.4km/h 9mph /  14.5km/h 86% 0in /  0.0mm 12 W/m2
09:28 38.3 °F /  3.5 °C 34.5 °F /  1.4 °C 29.5in /  998.0hPa NNE 2.9mph /  4.7km/h 9mph /  14.5km/h 86% 0in /  0.0mm 16 W/m2
09:33 38.3 °F /  3.5 °C 34.5 °F /  1.4 °C 29.5in /  997.6hPa East 2.9mph /  4.7km/h 8mph /  12.9km/h 86% 0in /  0.0mm 18 W/m2
09:38 38.3 °F /  3.5 °C 34.5 °F /  1.4 °C 29.5in /  997.6hPa NNE 4mph /  6.4km/h 9mph /  14.5km/h 86% 0in /  0.0mm 18 W/m2
09:43 38.1 °F /  3.4 °C 34.3 °F /  1.3 °C 29.5in /  997.3hPa ENE 8.9mph /  14.3km/h 12mph /  19.3km/h 86% 0in /  0.0mm 18 W/m2
09:48 38.1 °F /  3.4 °C 34 °F /  1.1 °C 29.4in /  997.0hPa NNW 8.1mph /  13km/h 14mph /  22.5km/h 85% 0in /  0.0mm 26 W/m2
09:53 38.1 °F /  3.4 °C 34 °F /  1.1 °C 29.4in /  997.0hPa NNW 2.9mph /  4.7km/h 17mph /  27.4km/h 85% 0in /  0.0mm 26 W/m2
09:58 38.1 °F /  3.4 °C 34 °F /  1.1 °C 29.4in /  996.6hPa NNW 10.1mph /  16.3km/h 12mph /  19.3km/h 85% 0in /  0.0mm 18 W/m2
10:03 38.1 °F /  3.4 °C 34 °F /  1.1 °C 29.4in /  996.6hPa East 4mph /  6.4km/h 17mph /  27.4km/h 85% 0in /  0.0mm 19 W/m2
10:08 38.1 °F /  3.4 °C 33.8 °F /  1 °C 29.4in /  996.6hPa North 4mph /  6.4km/h 13mph /  20.9km/h 84% 0in /  0.0mm 18 W/m2
10:13 38.1 °F /  3.4 °C 34 °F /  1.1 °C 29.4in /  996.3hPa North 2.9mph /  4.7km/h 4mph /  6.4km/h 85% 0in /  0.0mm 18 W/m2
10:18 38.1 °F /  3.4 °C 34 °F /  1.1 °C 29.4in /  996.3hPa East 4mph /  6.4km/h 13mph /  20.9km/h 85% 0in /  0.0mm 18 W/m2
10:28 38.1 °F /  3.4 °C 34 °F /  1.1 °C 29.4in /  995.9hPa North 2.9mph /  4.7km/h 12mph /  19.3km/h 85% 0in /  0.0mm 16 W/m2
10:33 38.1 °F /  3.4 °C 34 °F /  1.1 °C 29.4in /  995.6hPa NNW 4mph /  6.4km/h 9mph /  14.5km/h 85% 0in /  0.0mm 18 W/m2
10:38 38.1 °F /  3.4 °C 34 °F /  1.1 °C 29.4in /  995.3hPa NE 4.9mph /  7.9km/h 9mph /  14.5km/h 85% 0in /  0.0mm 19 W/m2
10:43 38.3 °F /  3.5 °C 34.2 °F /  1.2 °C 29.4in /  995.3hPa West 6mph /  9.7km/h 8mph /  12.9km/h 85% 0in /  0.0mm 21 W/m2
10:48 38.3 °F /  3.5 °C 34.2 °F /  1.2 °C 29.4in /  995.3hPa NW 2.9mph /  4.7km/h 5mph /  8km/h 85% 0in /  0.0mm 18 W/m2
10:53 38.3 °F /  3.5 °C 34.2 °F /  1.2 °C 29.4in /  995.3hPa East 2mph /  3.2km/h 8mph /  12.9km/h 85% 0in /  0.0mm 21 W/m2
10:58 38.5 °F /  3.6 °C 34.3 °F /  1.3 °C 29.4in /  995.3hPa SSE 2.9mph /  4.7km/h 12mph /  19.3km/h 85% 0in /  0.0mm 25 W/m2
11:03 38.5 °F /  3.6 °C 34.2 °F /  1.2 °C 29.4in /  994.9hPa NNW 4mph /  6.4km/h 9mph /  14.5km/h 84% 0in /  0.0mm 26 W/m2
11:08 38.5 °F /  3.6 °C 34.2 °F /  1.2 °C 29.4in /  994.6hPa NW 6mph /  9.7km/h 13mph /  20.9km/h 84% 0in /  0.0mm 23 W/m2
11:13 38.5 °F /  3.6 °C 34.2 °F /  1.2 °C 29.4in /  994.2hPa NW 2mph /  3.2km/h 14mph /  22.5km/h 84% 0in /  0.0mm 26 W/m2
11:18 38.5 °F /  3.6 °C 34.2 °F /  1.2 °C 29.4in /  994.6hPa East 0.9mph /  1.4km/h 10mph /  16.1km/h 84% 0in /  0.0mm 23 W/m2
11:23 38.5 °F /  3.6 °C 34.2 °F /  1.2 °C 29.4in /  994.2hPa North 2.9mph /  4.7km/h 6mph /  9.7km/h 84% 0in /  0.0mm 21 W/m2
11:28 38.5 °F /  3.6 °C 34.2 °F /  1.2 °C 29.4in /  994.2hPa NNW 4.9mph /  7.9km/h 7mph /  11.3km/h 84% 0in /  0.0mm 21 W/m2
11:33 38.5 °F /  3.6 °C 34.2 °F /  1.2 °C 29.4in /  994.2hPa North 2.9mph /  4.7km/h 12mph /  19.3km/h 84% 0in /  0.0mm 28 W/m2
11:38 38.5 °F /  3.6 °C 34.2 °F /  1.2 °C 29.3in /  993.6hPa NW 2.9mph /  4.7km/h 17mph /  27.4km/h 84% 0in /  0.0mm 28 W/m2
11:43 38.5 °F /  3.6 °C 34.3 °F /  1.3 °C 29.3in /  993.6hPa ESE 4mph /  6.4km/h 10mph /  16.1km/h 85% 0in /  0.0mm 30 W/m2
11:48 38.3 °F /  3.5 °C 34.2 °F /  1.2 °C 29.3in /  993.6hPa North 2mph /  3.2km/h 4mph /  6.4km/h 85% 0in /  0.0mm 33 W/m2
11:53 38.1 °F /  3.4 °C 34 °F /  1.1 °C 29.3in /  993.2hPa NE 4.9mph /  7.9km/h 6mph /  9.7km/h 85% 0in /  0.0mm 37 W/m2
11:58 37.9 °F /  3.3 °C 34.2 °F /  1.2 °C 29.3in /  993.2hPa NE 0.9mph /  1.4km/h 6mph /  9.7km/h 86% 0in /  0.0mm 49 W/m2
12:03 37.8 °F /  3.2 °C 34.2 °F /  1.2 °C 29.3in /  992.9hPa North 4.9mph /  7.9km/h 10mph /  16.1km/h 87% 0in /  0.0mm 53 W/m2
12:08 37.6 °F /  3.1 °C 34 °F /  1.1 °C 29.3in /  992.5hPa NNW 2.9mph /  4.7km/h 13mph /  20.9km/h 87% 0in /  0.0mm 39 W/m2
12:13 37.6 °F /  3.1 °C 34.3 °F /  1.3 °C 29.3in /  992.5hPa WSW 8.9mph /  14.3km/h 9mph /  14.5km/h 88% 0in /  0.0mm 46 W/m2
12:18 37.6 °F /  3.1 °C 34.3 °F /  1.3 °C 29.3in /  992.2hPa ENE 6mph /  9.7km/h 13mph /  20.9km/h 88% 0.01in /  0.2mm 35 W/m2
12:23 37.6 °F /  3.1 °C 34.3 °F /  1.3 °C 29.3in /  992.2hPa NE 6.9mph /  11.1km/h 10mph /  16.1km/h 88% 0.01in /  0.2mm 44 W/m2
12:28 37.6 °F /  3.1 °C 34.3 °F /  1.3 °C 29.3in /  991.9hPa SSE 2mph /  3.2km/h 13mph /  20.9km/h 88% 0.01in /  0.2mm 35 W/m2
12:33 37.6 °F /  3.1 °C 34.3 °F /  1.3 °C 29.3in /  991.5hPa North 2mph /  3.2km/h 9mph /  14.5km/h 88% 0.01in /  0.2mm 35 W/m2
12:38 37.6 °F /  3.1 °C 34.3 °F /  1.3 °C 29.3in /  991.5hPa North 4mph /  6.4km/h 12mph /  19.3km/h 88% 0.01in /  0.2mm 35 W/m2
12:43 37.8 °F /  3.2 °C 34.5 °F /  1.4 °C 29.3in /  991.5hPa NE 2mph /  3.2km/h 9mph /  14.5km/h 88% 0.01in /  0.2mm 33 W/m2
12:48 37.8 °F /  3.2 °C 34.5 °F /  1.4 °C 29.3in /  990.9hPa North 2.9mph /  4.7km/h 11mph /  17.7km/h 88% 0.01in /  0.2mm 33 W/m2
12:53 37.8 °F /  3.2 °C 34.5 °F /  1.4 °C 29.3in /  990.9hPa East 6.9mph /  11.1km/h 10mph /  16.1km/h 88% 0.01in /  0.2mm 30 W/m2
12:58 37.6 °F /  3.1 °C 34.3 °F /  1.3 °C 29.3in /  990.5hPa NNE 4.9mph /  7.9km/h 13mph /  20.9km/h 88% 0.01in /  0.2mm 28 W/m2
13:03 37.6 °F /  3.1 °C 34.3 °F /  1.3 °C 29.3in /  990.5hPa NW 4mph /  6.4km/h 8mph /  12.9km/h 88% 0.02in /  0.5mm 21 W/m2
13:08 37.6 °F /  3.1 °C 34.3 °F /  1.3 °C 29.2in /  990.2hPa ENE 2.9mph /  4.7km/h 10mph /  16.1km/h 88% 0.02in /  0.5mm 26 W/m2
13:13 37.6 °F /  3.1 °C 34.3 °F /  1.3 °C 29.2in /  990.2hPa NNE 4.9mph /  7.9km/h 12mph /  19.3km/h 88% 0.02in /  0.5mm 19 W/m2
13:18 37.6 °F /  3.1 °C 34.3 °F /  1.3 °C 29.2in /  989.5hPa WNW 4mph /  6.4km/h 8mph /  12.9km/h 88% 0.01in /  0.2mm 32 W/m2
13:23 37.6 °F /  3.1 °C 34.3 °F /  1.3 °C 29.2in /  989.5hPa NW 6mph /  9.7km/h 13mph /  20.9km/h 88% 0.01in /  0.2mm 33 W/m2
13:28 37.6 °F /  3.1 °C 34.7 °F /  1.5 °C 29.2in /  989.5hPa ENE 4mph /  6.4km/h 7mph /  11.3km/h 89% 0.01in /  0.2mm 35 W/m2
13:33 37.6 °F /  3.1 °C 34.7 °F /  1.5 °C 29.2in /  989.2hPa ENE 10.1mph /  16.3km/h 12mph /  19.3km/h 89% 0.01in /  0.2mm 35 W/m2
13:38 37.6 °F /  3.1 °C 34.7 °F /  1.5 °C 29.2in /  989.2hPa East 4.9mph /  7.9km/h 8mph /  12.9km/h 89% 0.01in /  0.2mm 28 W/m2
13:43 37.6 °F /  3.1 °C 34.7 °F /  1.5 °C 29.2in /  988.5hPa SE 4mph /  6.4km/h 10mph /  16.1km/h 89% 0.01in /  0.2mm 26 W/m2
13:48 37.8 °F /  3.2 °C 34.9 °F /  1.6 °C 29.2in /  988.5hPa NNE 0.9mph /  1.4km/h 7mph /  11.3km/h 89% 0.01in /  0.2mm 19 W/m2
13:53 37.8 °F /  3.2 °C 34.9 °F /  1.6 °C 29.2in /  988.1hPa NNW 2mph /  3.2km/h 8mph /  12.9km/h 89% 0.01in /  0.2mm 21 W/m2
13:58 37.9 °F /  3.3 °C 35.1 °F /  1.7 °C 29.2in /  988.1hPa East 2.9mph /  4.7km/h 4mph /  6.4km/h 89% 0.01in /  0.2mm 21 W/m2
14:03 37.9 °F /  3.3 °C 35.1 °F /  1.7 °C 29.2in /  987.8hPa NNE 2mph /  3.2km/h 11mph /  17.7km/h 89% 0in /  0.0mm 16 W/m2
14:08 37.9 °F /  3.3 °C 35.1 °F /  1.7 °C 29.2in /  987.1hPa East 4mph /  6.4km/h 7mph /  11.3km/h 89% 0in /  0.0mm 19 W/m2
14:13 38.1 °F /  3.4 °C 35.2 °F /  1.8 °C 29.2in /  987.5hPa NE 6mph /  9.7km/h 11mph /  17.7km/h 89% 0.01in /  0.2mm 16 W/m2
14:18 38.1 °F /  3.4 °C 35.2 °F /  1.8 °C 29.2in /  987.1hPa NE 6.9mph /  11.1km/h 11mph /  17.7km/h 89% 0.01in /  0.2mm 18 W/m2
14:23 38.3 °F /  3.5 °C 35.4 °F /  1.9 °C 29.2in /  987.1hPa ENE 2mph /  3.2km/h 9mph /  14.5km/h 89% 0.01in /  0.2mm 16 W/m2
14:28 38.3 °F /  3.5 °C 35.4 °F /  1.9 °C 29.2in /  987.1hPa North 4mph /  6.4km/h 9mph /  14.5km/h 89% 0.01in /  0.2mm 14 W/m2
14:33 38.3 °F /  3.5 °C 35.4 °F /  1.9 °C 29.1in /  986.8hPa South 2.9mph /  4.7km/h 6mph /  9.7km/h 89% 0.01in /  0.2mm 12 W/m2
14:38 38.5 °F /  3.6 °C 35.6 °F /  2 °C 29.1in /  986.8hPa NE 2.9mph /  4.7km/h 7mph /  11.3km/h 89% 0.01in /  0.2mm 14 W/m2
14:43 38.5 °F /  3.6 °C 35.6 °F /  2 °C 29.1in /  986.5hPa NW 2.9mph /  4.7km/h 8mph /  12.9km/h 89% 0.01in /  0.2mm 12 W/m2
14:48 38.5 °F /  3.6 °C 35.6 °F /  2 °C 29.1in /  986.5hPa NE 6.9mph /  11.1km/h 15mph /  24.1km/h 89% 0.01in /  0.2mm 12 W/m2
14:53 38.5 °F /  3.6 °C 35.6 °F /  2 °C 29.1in /  986.1hPa NE 2mph /  3.2km/h 9mph /  14.5km/h 89% 0.01in /  0.2mm 12 W/m2
14:58 38.5 °F /  3.6 °C 35.6 °F /  2 °C 29.1in /  985.8hPa ESE 4mph /  6.4km/h 14mph /  22.5km/h 89% 0.01in /  0.2mm 14 W/m2
15:03 38.5 °F /  3.6 °C 35.6 °F /  2 °C 29.1in /  986.1hPa NNE 2.9mph /  4.7km/h 13mph /  20.9km/h 89% 0.01in /  0.2mm 12 W/m2
15:08 38.5 °F /  3.6 °C 35.6 °F /  2 °C 29.1in /  985.4hPa NE 4mph /  6.4km/h 9mph /  14.5km/h 89% 0.02in /  0.5mm 11 W/m2
15:13 38.5 °F /  3.6 °C 35.8 °F /  2.1 °C 29.1in /  985.4hPa NNE 2.9mph /  4.7km/h 10mph /  16.1km/h 90% 0.01in /  0.2mm 11 W/m2
15:18 38.7 °F /  3.7 °C 36 °F /  2.2 °C 29.1in /  985.1hPa East 6.9mph /  11.1km/h 9mph /  14.5km/h 90% 0.01in /  0.2mm 9 W/m2
15:23 38.7 °F /  3.7 °C 36 °F /  2.2 °C 29.1in /  985.1hPa South 8.9mph /  14.3km/h 9mph /  14.5km/h 90% 0.02in /  0.5mm 7 W/m2
15:28 38.7 °F /  3.7 °C 36.3 °F /  2.4 °C 29.1in /  984.8hPa NNE 0.9mph /  1.4km/h 6mph /  9.7km/h 91% 0.02in /  0.5mm 9 W/m2
15:33 38.7 °F /  3.7 °C 36.3 °F /  2.4 °C 29.1in /  984.8hPa East 6mph /  9.7km/h 11mph /  17.7km/h 91% 0.02in /  0.5mm 5 W/m2
15:38 38.8 °F /  3.8 °C 36.5 °F /  2.5 °C 29.1in /  984.8hPa East 6.9mph /  11.1km/h 10mph /  16.1km/h 91% 0.02in /  0.5mm 5 W/m2
15:43 38.8 °F /  3.8 °C 36.5 °F /  2.5 °C 29.1in /  984.8hPa SE 4mph /  6.4km/h 10mph /  16.1km/h 91% 0.02in /  0.5mm 5 W/m2
15:48 38.8 °F /  3.8 °C 36.5 °F /  2.5 °C 29.1in /  984.4hPa ESE 10.1mph /  16.3km/h 11mph /  17.7km/h 91% 0.02in /  0.5mm 5 W/m2
15:53 38.8 °F /  3.8 °C 36.5 °F /  2.5 °C 29.1in /  984.4hPa ENE 2mph /  3.2km/h 8mph /  12.9km/h 91% 0.03in /  0.8mm 0 W/m2
15:58 38.8 °F /  3.8 °C 36.5 °F /  2.5 °C 29.1in /  984.1hPa ESE 2.9mph /  4.7km/h 11mph /  17.7km/h 91% 0.03in /  0.8mm 0 W/m2
16:03 38.7 °F /  3.7 °C 36.3 °F /  2.4 °C 29.1in /  983.8hPa NE 6mph /  9.7km/h 13mph /  20.9km/h 91% 0.03in /  0.8mm 0 W/m2
16:08 38.7 °F /  3.7 °C 36.3 °F /  2.4 °C 29.1in /  983.8hPa ESE 6.9mph /  11.1km/h 11mph /  17.7km/h 91% 0.03in /  0.8mm 0 W/m2
16:13 38.5 °F /  3.6 °C 36.1 °F /  2.3 °C 29.1in /  983.8hPa ENE 6mph /  9.7km/h 13mph /  20.9km/h 91% 0.03in /  0.8mm 0 W/m2
16:18 38.3 °F /  3.5 °C 36 °F /  2.2 °C 29in /  983.4hPa East 4mph /  6.4km/h 11mph /  17.7km/h 91% 0.04in /  1.0mm 0 W/m2
16:23 38.3 °F /  3.5 °C 36.1 °F /  2.3 °C 29in /  983.4hPa ESE 2.9mph /  4.7km/h 13mph /  20.9km/h 92% 0.03in /  0.8mm 0 W/m2
16:28 38.1 °F /  3.4 °C 36 °F /  2.2 °C 29in /  983.4hPa NNE 2mph /  3.2km/h 9mph /  14.5km/h 92% 0.03in /  0.8mm 0 W/m2
16:33 38.1 °F /  3.4 °C 36 °F /  2.2 °C 29in /  983.1hPa ESE 10.1mph /  16.3km/h 10mph /  16.1km/h 92% 0.03in /  0.8mm 0 W/m2
16:38 38.1 °F /  3.4 °C 36 °F /  2.2 °C 29in /  983.1hPa ENE 4.9mph /  7.9km/h 10mph /  16.1km/h 92% 0.04in /  1.0mm 0 W/m2
16:43 38.1 °F /  3.4 °C 36 °F /  2.2 °C 29in /  982.7hPa East 6mph /  9.7km/h 12mph /  19.3km/h 92% 0.03in /  0.8mm 0 W/m2
16:48 38.1 °F /  3.4 °C 36 °F /  2.2 °C 29in /  982.7hPa NE 2mph /  3.2km/h 11mph /  17.7km/h 92% 0.03in /  0.8mm 0 W/m2
16:53 38.1 °F /  3.4 °C 36 °F /  2.2 °C 29in /  982.4hPa ENE 8.1mph /  13km/h 16mph /  25.7km/h 92% 0.02in /  0.5mm 0 W/m2
16:58 38.1 °F /  3.4 °C 36 °F /  2.2 °C 29in /  982.0hPa ENE 2mph /  3.2km/h 13mph /  20.9km/h 92% 0.02in /  0.5mm 0 W/m2
17:03 38.1 °F /  3.4 °C 36 °F /  2.2 °C 29in /  982.0hPa ENE 2.9mph /  4.7km/h 16mph /  25.7km/h 92% 0.02in /  0.5mm 0 W/m2
17:08 38.1 °F /  3.4 °C 36 °F /  2.2 °C 29in /  982.0hPa SSE 4mph /  6.4km/h 17mph /  27.4km/h 92% 0.02in /  0.5mm 0 W/m2
17:13 38.5 °F /  3.6 °C 36.1 °F /  2.3 °C 29in /  982.0hPa NNE 4mph /  6.4km/h 13mph /  20.9km/h 91% 0.02in /  0.5mm 0 W/m2
17:18 38.5 °F /  3.6 °C 36.1 °F /  2.3 °C 29in /  981.7hPa ENE 4mph /  6.4km/h 9mph /  14.5km/h 91% 0.02in /  0.5mm 0 W/m2
17:23 38.5 °F /  3.6 °C 36.1 °F /  2.3 °C 29in /  981.7hPa NE 2mph /  3.2km/h 5mph /  8km/h 91% 0.03in /  0.8mm 0 W/m2
17:28 38.5 °F /  3.6 °C 36.1 °F /  2.3 °C 29in /  981.4hPa NNE 4.9mph /  7.9km/h 9mph /  14.5km/h 91% 0.04in /  1.0mm 0 W/m2
17:34 38.5 °F /  3.6 °C 36.1 °F /  2.3 °C 29in /  981.7hPa NW 8.9mph /  14.3km/h 11mph /  17.7km/h 91% 0.05in /  1.3mm 0 W/m2
17:39 38.7 °F /  3.7 °C 36.3 °F /  2.4 °C 29in /  981.4hPa ESE 6mph /  9.7km/h 10mph /  16.1km/h 91% 0.05in /  1.3mm 0 W/m2
17:44 38.7 °F /  3.7 °C 36.3 °F /  2.4 °C 29in /  981.4hPa North 4mph /  6.4km/h 14mph /  22.5km/h 91% 0.05in /  1.3mm 0 W/m2
17:49 38.7 °F /  3.7 °C 36.3 °F /  2.4 °C 29in /  981.4hPa ENE 6mph /  9.7km/h 9mph /  14.5km/h 91% 0.06in /  1.5mm 0 W/m2
17:54 38.7 °F /  3.7 °C 36.3 °F /  2.4 °C 29in /  981.4hPa ENE 2.9mph /  4.7km/h 6mph /  9.7km/h 91% 0.07in /  1.8mm 0 W/m2
17:59 38.5 °F /  3.6 °C 36.1 °F /  2.3 °C 29in /  981.0hPa NNE 6.9mph /  11.1km/h 8mph /  12.9km/h 91% 0.08in /  2.0mm 0 W/m2
18:04 38.5 °F /  3.6 °C 36.1 °F /  2.3 °C 29in /  981.0hPa West 6.9mph /  11.1km/h 8mph /  12.9km/h 91% 0.09in /  2.3mm 0 W/m2
18:09 38.3 °F /  3.5 °C 36 °F /  2.2 °C 29in /  981.0hPa ENE 4.9mph /  7.9km/h 6mph /  9.7km/h 91% 0.09in /  2.3mm 0 W/m2
18:14 38.1 °F /  3.4 °C 36 °F /  2.2 °C 29in /  981.0hPa NNW 2mph /  3.2km/h 7mph /  11.3km/h 92% 0.1in /  2.5mm 0 W/m2
18:19 38.1 °F /  3.4 °C 36 °F /  2.2 °C 29in /  981.0hPa NW 2.9mph /  4.7km/h 5mph /  8km/h 92% 0.09in /  2.3mm 0 W/m2
18:24 38.1 °F /  3.4 °C 36 °F /  2.2 °C 29in /  980.7hPa NNE 2.9mph /  4.7km/h 6mph /  9.7km/h 92% 0.09in /  2.3mm 0 W/m2
18:29 37.9 °F /  3.3 °C 35.8 °F /  2.1 °C 29in /  980.7hPa ENE 6mph /  9.7km/h 10mph /  16.1km/h 92% 0.09in /  2.3mm 0 W/m2
18:34 37.9 °F /  3.3 °C 35.8 °F /  2.1 °C 29in /  980.4hPa NE 4mph /  6.4km/h 10mph /  16.1km/h 92% 0.08in /  2.0mm 0 W/m2
18:39 37.9 °F /  3.3 °C 35.8 °F /  2.1 °C 29in /  980.4hPa NE 2mph /  3.2km/h 14mph /  22.5km/h 92% 0.07in /  1.8mm 0 W/m2
18:44 37.9 °F /  3.3 °C 35.8 °F /  2.1 °C 29in /  980.7hPa NNE 4.9mph /  7.9km/h 5mph /  8km/h 92% 0.07in /  1.8mm 0 W/m2
18:49 37.9 °F /  3.3 °C 35.8 °F /  2.1 °C 29in /  980.4hPa NNE 4mph /  6.4km/h 7mph /  11.3km/h 92% 0.06in /  1.5mm 0 W/m2
18:54 37.8 °F /  3.2 °C 35.6 °F /  2 °C 29in /  980.4hPa NW 2.9mph /  4.7km/h 6mph /  9.7km/h 92% 0.05in /  1.3mm 0 W/m2
18:59 37.9 °F /  3.3 °C 35.8 °F /  2.1 °C 29in /  980.4hPa North 2mph /  3.2km/h 8mph /  12.9km/h 92% 0.05in /  1.3mm 0 W/m2
19:04 37.9 °F /  3.3 °C 35.8 °F /  2.1 °C 28.9in /  980.0hPa NNE 4mph /  6.4km/h 9mph /  14.5km/h 92% 0.04in /  1.0mm 0 W/m2
19:09 38.1 °F /  3.4 °C 36 °F /  2.2 °C 29in /  980.4hPa ENE 2mph /  3.2km/h 12mph /  19.3km/h 92% 0.02in /  0.5mm 0 W/m2
19:14 38.1 °F /  3.4 °C 36 °F /  2.2 °C 28.9in /  980.0hPa North 8.1mph /  13km/h 11mph /  17.7km/h 92% 0.02in /  0.5mm 0 W/m2
19:19 38.3 °F /  3.5 °C 36.1 °F /  2.3 °C 28.9in /  980.0hPa ENE 4mph /  6.4km/h 8mph /  12.9km/h 92% 0.02in /  0.5mm 0 W/m2
19:24 38.5 °F /  3.6 °C 36.3 °F /  2.4 °C 28.9in /  980.0hPa East 6.9mph /  11.1km/h 11mph /  17.7km/h 92% 0.02in /  0.5mm 0 W/m2
19:29 38.7 °F /  3.7 °C 36.3 °F /  2.4 °C 28.9in /  980.0hPa NNE 2.9mph /  4.7km/h 14mph /  22.5km/h 91% 0.02in /  0.5mm 0 W/m2
19:34 38.7 °F /  3.7 °C 36.3 °F /  2.4 °C 28.9in /  979.7hPa North 4mph /  6.4km/h 9mph /  14.5km/h 91% 0.02in /  0.5mm 0 W/m2
19:39 38.8 °F /  3.8 °C 36.5 °F /  2.5 °C 28.9in /  979.3hPa SE 6.9mph /  11.1km/h 14mph /  22.5km/h 91% 0.02in /  0.5mm 0 W/m2
19:44 39 °F /  3.9 °C 36.7 °F /  2.6 °C 28.9in /  979.7hPa West 2.9mph /  4.7km/h 11mph /  17.7km/h 91% 0.02in /  0.5mm 0 W/m2
19:49 39 °F /  3.9 °C 36.7 °F /  2.6 °C 28.9in /  980.0hPa NNW 8.1mph /  13km/h 13mph /  20.9km/h 91% 0.02in /  0.5mm 0 W/m2
19:54 39.4 °F /  4.1 °C 36.7 °F /  2.6 °C 28.9in /  979.7hPa NE 13mph /  20.9km/h 13mph /  20.9km/h 90% 0.02in /  0.5mm 0 W/m2
19:59 39.4 °F /  4.1 °C 36.7 °F /  2.6 °C 28.9in /  979.7hPa NW 8.9mph /  14.3km/h 16mph /  25.7km/h 90% 0.01in /  0.2mm 0 W/m2
20:04 39.4 °F /  4.1 °C 36.7 °F /  2.6 °C 28.9in /  979.3hPa NNE 2mph /  3.2km/h 9mph /  14.5km/h 90% 0.01in /  0.2mm 0 W/m2
20:09 39.4 °F /  4.1 °C 36.7 °F /  2.6 °C 28.9in /  979.7hPa SW 2mph /  3.2km/h 11mph /  17.7km/h 90% 0.01in /  0.2mm 0 W/m2
20:14 39.2 °F /  4 °C 36.5 °F /  2.5 °C 28.9in /  979.3hPa WNW 4.9mph /  7.9km/h 13mph /  20.9km/h 90% 0.01in /  0.2mm 0 W/m2
20:19 39.4 °F /  4.1 °C 36.7 °F /  2.6 °C 28.9in /  979.3hPa North 4.9mph /  7.9km/h 16mph /  25.7km/h 90% 0.01in /  0.2mm 0 W/m2
20:24 39.4 °F /  4.1 °C 36.7 °F /  2.6 °C 28.9in /  979.3hPa North 11mph /  17.7km/h 11mph /  17.7km/h 90% 0.01in /  0.2mm 0 W/m2
20:29 39.4 °F /  4.1 °C 36.7 °F /  2.6 °C 28.9in /  979.3hPa SE 4mph /  6.4km/h 16mph /  25.7km/h 90% 0in /  0.0mm 0 W/m2
20:34 39.4 °F /  4.1 °C 36.7 °F /  2.6 °C 28.9in /  979.3hPa NNE 8.1mph /  13km/h 8mph /  12.9km/h 90% 0in /  0.0mm 0 W/m2
20:39 39.4 °F /  4.1 °C 36.7 °F /  2.6 °C 28.9in /  979.0hPa WNW 6.9mph /  11.1km/h 12mph /  19.3km/h 90% 0in /  0.0mm 0 W/m2
20:44 39.4 °F /  4.1 °C 36.5 °F /  2.5 °C 28.9in /  979.3hPa ENE 6.9mph /  11.1km/h 13mph /  20.9km/h 89% 0in /  0.0mm 0 W/m2
20:49 39.4 °F /  4.1 °C 36.5 °F /  2.5 °C 28.9in /  979.0hPa NNW 4mph /  6.4km/h 9mph /  14.5km/h 89% 0in /  0.0mm 0 W/m2
20:54 39.4 °F /  4.1 °C 36.5 °F /  2.5 °C 28.9in /  979.0hPa North 6mph /  9.7km/h 13mph /  20.9km/h 89% 0in /  0.0mm 0 W/m2
20:59 39.4 °F /  4.1 °C 36.5 °F /  2.5 °C 28.9in /  979.0hPa NNE 4mph /  6.4km/h 6mph /  9.7km/h 89% 0in /  0.0mm 0 W/m2
21:04 39.4 °F /  4.1 °C 36.5 °F /  2.5 °C 28.9in /  978.7hPa WNW 8.1mph /  13km/h 22mph /  35.4km/h 89% 0in /  0.0mm 0 W/m2
21:09 39.6 °F /  4.2 °C 36.5 °F /  2.5 °C 28.9in /  978.7hPa NNE 0.9mph /  1.4km/h 10mph /  16.1km/h 89% 0in /  0.0mm 0 W/m2
21:14 39.6 °F /  4.2 °C 36.5 °F /  2.5 °C 28.9in /  978.7hPa NW 4.9mph /  7.9km/h 8mph /  12.9km/h 89% 0in /  0.0mm 0 W/m2
21:19 39.6 °F /  4.2 °C 36.3 °F /  2.4 °C 28.9in /  978.7hPa WNW 6.9mph /  11.1km/h 20mph /  32.2km/h 88% 0in /  0.0mm 0 W/m2
21:24 39.6 °F /  4.2 °C 36.3 °F /  2.4 °C 28.9in /  978.7hPa ENE 2.9mph /  4.7km/h 12mph /  19.3km/h 88% 0in /  0.0mm 0 W/m2
21:29 39.6 °F /  4.2 °C 36.3 °F /  2.4 °C 28.9in /  978.7hPa NW 2mph /  3.2km/h 9mph /  14.5km/h 88% 0in /  0.0mm 0 W/m2
21:34 39.6 °F /  4.2 °C 36.3 °F /  2.4 °C 28.9in /  978.7hPa NNE 2mph /  3.2km/h 11mph /  17.7km/h 88% 0in /  0.0mm 0 W/m2
21:39 39.6 °F /  4.2 °C 36 °F /  2.2 °C 28.9in /  978.7hPa North 4.9mph /  7.9km/h 11mph /  17.7km/h 87% 0in /  0.0mm 0 W/m2
21:44 39.6 °F /  4.2 °C 36 °F /  2.2 °C 28.9in /  979.0hPa WNW 4.9mph /  7.9km/h 24mph /  38.6km/h 87% 0in /  0.0mm 0 W/m2
21:49 39.6 °F /  4.2 °C 36.3 °F /  2.4 °C 28.9in /  978.7hPa WNW 4.9mph /  7.9km/h 10mph /  16.1km/h 88% 0in /  0.0mm 0 W/m2
21:54 39.4 °F /  4.1 °C 36.1 °F /  2.3 °C 28.9in /  978.7hPa West 11mph /  17.7km/h 11mph /  17.7km/h 88% 0in /  0.0mm 0 W/m2
21:59 39.4 °F /  4.1 °C 36.1 °F /  2.3 °C 28.9in /  979.0hPa WSW 8.9mph /  14.3km/h 15mph /  24.1km/h 88% 0in /  0.0mm 0 W/m2
22:04 39.4 °F /  4.1 °C 36.1 °F /  2.3 °C 28.9in /  979.3hPa NE 2.9mph /  4.7km/h 12mph /  19.3km/h 88% 0in /  0.0mm 0 W/m2
22:09 39.4 °F /  4.1 °C 36.1 °F /  2.3 °C 28.9in /  979.0hPa NNW 2mph /  3.2km/h 13mph /  20.9km/h 88% 0in /  0.0mm 0 W/m2
22:14 39.4 °F /  4.1 °C 36.1 °F /  2.3 °C 28.9in /  979.0hPa NW 2.9mph /  4.7km/h 6mph /  9.7km/h 88% 0in /  0.0mm 0 W/m2
22:19 39.2 °F /  4 °C 36 °F /  2.2 °C 28.9in /  979.0hPa NE 4.9mph /  7.9km/h 13mph /  20.9km/h 88% 0in /  0.0mm 0 W/m2
22:24 39.2 °F /  4 °C 36 °F /  2.2 °C 28.9in /  978.7hPa SSE 0.9mph /  1.4km/h 6mph /  9.7km/h 88% 0in /  0.0mm 0 W/m2
22:29 39 °F /  3.9 °C 36.1 °F /  2.3 °C 28.9in /  978.7hPa West 2mph /  3.2km/h 8mph /  12.9km/h 89% 0in /  0.0mm 0 W/m2
22:34 39 °F /  3.9 °C 36.1 °F /  2.3 °C 28.9in /  979.0hPa ESE 4mph /  6.4km/h 10mph /  16.1km/h 89% 0in /  0.0mm 0 W/m2
22:39 39 °F /  3.9 °C 36.1 °F /  2.3 °C 28.9in /  979.0hPa North 4mph /  6.4km/h 9mph /  14.5km/h 89% 0in /  0.0mm 0 W/m2
22:44 39 °F /  3.9 °C 36.1 °F /  2.3 °C 28.9in /  979.0hPa West 6mph /  9.7km/h 7mph /  11.3km/h 89% 0in /  0.0mm 0 W/m2
22:49 39 °F /  3.9 °C 36.1 °F /  2.3 °C 28.9in /  979.0hPa WNW 0.9mph /  1.4km/h 13mph /  20.9km/h 89% 0in /  0.0mm 0 W/m2
22:54 39 °F /  3.9 °C 36.1 °F /  2.3 °C 28.9in /  978.7hPa ENE 6mph /  9.7km/h 7mph /  11.3km/h 89% 0in /  0.0mm 0 W/m2
22:59 39 °F /  3.9 °C 36.3 °F /  2.4 °C 28.9in /  979.0hPa NNW 4.9mph /  7.9km/h 9mph /  14.5km/h 90% 0in /  0.0mm 0 W/m2
23:04 39 °F /  3.9 °C 36.3 °F /  2.4 °C 28.9in /  978.7hPa NE 2mph /  3.2km/h 13mph /  20.9km/h 90% 0in /  0.0mm 0 W/m2
23:09 39 °F /  3.9 °C 36.3 °F /  2.4 °C 28.9in /  978.7hPa NNE 0.9mph /  1.4km/h 6mph /  9.7km/h 90% 0in /  0.0mm 0 W/m2
23:14 39 °F /  3.9 °C 36.1 °F /  2.3 °C 28.9in /  978.7hPa NE 4.9mph /  7.9km/h 18mph /  29km/h 89% 0in /  0.0mm 0 W/m2
23:19 39 °F /  3.9 °C 36.1 °F /  2.3 °C 28.9in /  978.7hPa WNW 4.9mph /  7.9km/h 14mph /  22.5km/h 89% 0in /  0.0mm 0 W/m2
23:24 39 °F /  3.9 °C 36.3 °F /  2.4 °C 28.9in /  979.0hPa NNE 2.9mph /  4.7km/h 18mph /  29km/h 90% 0in /  0.0mm 0 W/m2
23:29 39 °F /  3.9 °C 36.3 °F /  2.4 °C 28.9in /  978.7hPa WNW 2.9mph /  4.7km/h 7mph /  11.3km/h 90% 0in /  0.0mm 0 W/m2
23:34 39 °F /  3.9 °C 36.3 °F /  2.4 °C 28.9in /  978.7hPa NNW 4mph /  6.4km/h 11mph /  17.7km/h 90% 0in /  0.0mm 0 W/m2
23:39 39 °F /  3.9 °C 36.3 °F /  2.4 °C 28.9in /  978.7hPa SW 0.9mph /  1.4km/h 6mph /  9.7km/h 90% 0in /  0.0mm 0 W/m2
23:45 39 °F /  3.9 °C 36.3 °F /  2.4 °C 28.9in /  978.7hPa SW 2.9mph /  4.7km/h 9mph /  14.5km/h 90% 0in /  0.0mm 0 W/m2
23:50 39 °F /  3.9 °C 36.3 °F /  2.4 °C 28.9in /  978.7hPa North 2mph /  3.2km/h 7mph /  11.3km/h 90% 0in /  0.0mm 0 W/m2
23:55 39.2 °F /  4 °C 36.5 °F /  2.5 °C 28.9in /  978.7hPa North 2mph /  3.2km/h 9mph /  14.5km/h 90% 0in /  0.0mm 0 W/m2
Juneau County Weather
Compliments of Weather Underground - 4 mb